Coeburn, Virginia
Current Conditions -  °F | °C
As of 8:35 AM on Sunday 23 Nov 2014 (Local Time) from KLNP Reporting Station
Clear Clear  
Wind Chill: 50°   Ceiling: Unl
Heat Index: 50°   Visibility: 10mi
Dew Point: 36°   Wind: 7mph
Humidity: 58%   Direction: 150°SSE
Pressure: 30.09"   Gusts: NA
Location:  36.94°N, 82.46°W
Report Text: KLNP 231335Z AUTO 15006KT 10SM CLR 10/02 A3009 RMK AO2
Loading
Personal Weather Stations






























Interactive Weather Map New forecast layout! Learn more

10-Day Weather Forecast

Advertisements
Track Severe Weather on mobile